Mostly Cloudy Current Weather (METAR) For Bournemouth Airport

All times on the weather descriptions are local

Observed at 13:20 - (21 mins ago)

Mostly Cloudy

17°C

Mostly Cloudy
Clouds: Few Clouds at 1,600ft, Broken Clouds at 2,000ft
Wind: 230° at 05 knots
Visibility: Greater than 10km
QNH: 1014
Dew Point: 15°C
Runway in Use: Runway 26

Sunrise Today: 07:44
Sunset Today: 17:58

Forecast Weather (TAF) For Bournemouth Airport

Issued at 01:00 - (6 days 11 hrs ago)


Runway in Use: Unable to determine, wind is clam

Forecast valid until 01:00 on Friday

METAR/TAF RAW METAR / TAF

EGHH 241220Z 23005KT 9999 FEW016 BKN020 17/15 Q1014

Weather Widget

Put weather from any of our airports on your website with our weather widget.

Find Another Search

Airport Search


Please Wait Please Wait - Loading
Close
Close

Login

Username:

Password:

Remember Me:

Remember me on this computer

Forgotten your password? Get a reset password sent to your registered e-mail address

Close

User Private Message

Subject:

Message: